Time;durP1;ratioP1;P1;durP2;ratioP2;P2;SDS_P1;SDS_P2;PMS_P1;PMS_P2;Temp;Humidity;BMP_temperature;BMP_pressure;BME280_temperature;BME280_humidity;BME280_pressure;Samples;Min_cycle;Max_cycle;Signal;HPM_P1;HPM_P2
2022/11/28 00:00:57;;;;;;;4.32;2.08;;;5.50;99.90;;;;;;6130131;19;20030;-68
2022/11/28 00:03:01;;;;;;;4.65;2.42;;;;;;;;;;6132065;19;19951;-68
2022/11/28 00:05:05;;;;;;;4.35;2.40;;;5.20;99.90;;;;;;6132051;19;19919;-68
2022/11/28 00:07:09;;;;;;;5.88;2.13;;;5.30;99.90;;;;;;6131193;19;19921;-68
2022/11/28 00:09:13;;;;;;;6.13;2.53;;;5.60;99.90;;;;;;6132071;19;19919;-68
2022/11/28 00:11:18;;;;;;;4.32;2.40;;;5.80;99.90;;;;;;6129800;19;19922;-67
2022/11/28 00:13:22;;;;;;;3.72;1.90;;;5.40;99.90;;;;;;6131396;19;19943;-67
2022/11/28 00:15:26;;;;;;;5.05;2.40;;;5.40;99.90;;;;;;6131255;19;19928;-68
2022/11/28 00:17:33;;;;;;;4.38;3.03;;;5.60;99.90;;;;;;6131420;19;19933;-68
2022/11/28 00:19:38;;;;;;;4.70;2.45;;;5.80;99.90;;;;;;6128549;19;20401;-68
2022/11/28 00:21:43;;;;;;;4.88;2.72;;;5.30;99.90;;;;;;6130808;19;20248;-68
2022/11/28 00:23:48;;;;;;;4.95;2.60;;;5.50;99.90;;;;;;6132292;19;19929;-67
2022/11/28 00:25:59;;;;;;;5.53;2.90;;;5.40;99.90;;;;;;6131490;19;19934;-67
2022/11/28 00:28:03;;;;;;;3.65;2.38;;;;;;;;;;6128678;19;19946;-68
2022/11/28 00:30:10;;;;;;;5.82;3.00;;;5.60;99.90;;;;;;6131765;19;19915;-69
2022/11/28 00:32:14;;;;;;;4.38;2.65;;;5.40;99.90;;;;;;6129147;19;19914;-68
2022/11/28 00:34:21;;;;;;;5.22;3.10;;;5.00;99.90;;;;;;6124348;19;20014;-67
2022/11/28 00:36:25;;;;;;;7.35;2.90;;;5.20;99.90;;;;;;6128270;19;19943;-67
2022/11/28 00:38:29;;;;;;;5.13;2.60;;;5.80;99.90;;;;;;6130286;19;19940;-68
2022/11/28 00:40:33;;;;;;;6.43;2.63;;;5.30;99.90;;;;;;6129296;19;19914;-68
2022/11/28 00:42:37;;;;;;;4.65;2.65;;;5.70;99.90;;;;;;6129198;19;19934;-67
2022/11/28 00:44:41;;;;;;;6.10;2.90;;;5.30;99.90;;;;;;6126619;19;19918;-68
2022/11/28 00:46:45;;;;;;;6.18;2.50;;;5.30;99.90;;;;;;6130867;19;19923;-67
2022/11/28 00:48:49;;;;;;;6.65;3.10;;;5.60;99.90;;;;;;6127301;19;20305;-67
2022/11/28 00:50:56;;;;;;;4.55;2.72;;;5.40;99.90;;;;;;6127729;19;19928;-67
2022/11/28 00:53:00;;;;;;;5.78;3.33;;;5.60;99.90;;;;;;6130150;19;19942;-67
2022/11/28 00:55:04;;;;;;;5.18;2.65;;;5.60;99.90;;;;;;6128861;19;19919;-67
2022/11/28 00:57:08;;;;;;;4.90;2.58;;;5.30;99.90;;;;;;6127975;19;19997;-68
2022/11/28 00:59:12;;;;;;;5.40;2.90;;;;;;;;;;6128685;19;19924;-68
2022/11/28 01:01:19;;;;;;;6.90;3.42;;;5.50;99.90;;;;;;6128144;19;20257;-68
2022/11/28 01:03:23;;;;;;;3.97;2.75;;;;;;;;;;6129665;19;19943;-68
2022/11/28 01:05:28;;;;;;;4.82;2.63;;;5.40;99.90;;;;;;6128169;19;20348;-68
2022/11/28 01:07:34;;;;;;;10.15;2.95;;;5.30;99.90;;;;;;6127666;19;19919;-68
2022/11/28 01:09:38;;;;;;;5.50;2.60;;;5.60;99.90;;;;;;6127914;19;19946;-67
2022/11/28 01:11:43;;;;;;;5.20;2.80;;;5.90;99.90;;;;;;6128429;19;19918;-68
2022/11/28 01:13:47;;;;;;;7.32;2.88;;;5.60;99.90;;;;;;6125333;19;20007;-68
2022/11/28 01:15:51;;;;;;;4.78;3.00;;;5.60;99.90;;;;;;6130671;19;20328;-68
2022/11/28 01:17:55;;;;;;;6.35;3.17;;;6.00;99.90;;;;;;6128166;19;19910;-68
2022/11/28 01:19:58;;;;;;;6.82;2.35;;;5.40;99.90;;;;;;6128450;19;19939;-67
2022/11/28 01:22:05;;;;;;;7.32;3.17;;;5.70;99.90;;;;;;6130146;19;19929;-67
2022/11/28 01:24:11;;;;;;;6.65;3.17;;;5.30;99.90;;;;;;6128702;19;19954;-67
2022/11/28 01:26:18;;;;;;;5.53;3.00;;;6.00;99.90;;;;;;6126864;19;20294;-68
2022/11/28 01:28:22;;;;;;;4.97;3.00;;;5.50;99.90;;;;;;6130148;19;20273;-67
2022/11/28 01:30:26;;;;;;;4.03;2.55;;;5.80;99.90;;;;;;6127805;19;20268;-68
2022/11/28 01:32:30;;;;;;;5.57;3.42;;;;;;;;;;6128793;19;19948;-68
2022/11/28 01:34:34;;;;;;;4.85;2.78;;;5.70;99.90;;;;;;6127984;19;20285;-67
2022/11/28 01:36:38;;;;;;;5.43;3.28;;;5.40;99.90;;;;;;6129788;19;19918;-68
2022/11/28 01:38:42;;;;;;;3.88;3.13;;;5.70;99.90;;;;;;6128473;19;19919;-67
2022/11/28 01:40:49;;;;;;;5.40;3.13;;;5.80;99.90;;;;;;6128583;19;20290;-67
2022/11/28 01:42:53;;;;;;;5.88;3.53;;;;;;;;;;6127949;19;19915;-68
2022/11/28 01:45:16;;;;;;;5.95;3.28;;;5.70;99.90;;;;;;6126585;19;19939;-67
2022/11/28 01:47:27;;;;;;;5.45;3.35;;;5.50;99.90;;;;;;6126613;19;19934;-68
2022/11/28 01:49:33;;;;;;;5.00;3.13;;;6.20;99.90;;;;;;6125446;19;19939;-67
2022/11/28 01:51:37;;;;;;;4.57;2.78;;;5.30;99.90;;;;;;6126683;19;20302;-67
2022/11/28 01:53:44;;;;;;;5.50;2.85;;;5.50;99.90;;;;;;6129629;19;19926;-68
2022/11/28 01:55:57;;;;;;;4.88;2.90;;;5.90;99.90;;;;;;6128640;19;19930;-68
2022/11/28 01:58:01;;;;;;;3.95;2.80;;;5.60;99.90;;;;;;6127409;19;19919;-68
2022/11/28 02:00:09;;;;;;;5.00;3.50;;;5.50;99.90;;;;;;6129442;19;20250;-68
2022/11/28 02:02:21;;;;;;;5.10;2.90;;;5.60;99.90;;;;;;6129601;19;19922;-68
2022/11/28 02:04:28;;;;;;;6.30;3.22;;;6.20;99.90;;;;;;6127687;19;20298;-66
2022/11/28 02:06:34;;;;;;;6.97;3.47;;;5.60;99.90;;;;;;6129504;19;19914;-66
2022/11/28 02:08:38;;;;;;;5.53;3.15;;;5.30;99.90;;;;;;6124917;19;19919;-66
2022/11/28 02:10:55;;;;;;;4.72;3.28;;;5.60;99.90;;;;;;6128098;19;19923;-67
2022/11/28 02:13:15;;;;;;;9.73;3.53;;;5.60;99.90;;;;;;6125581;19;19946;-66
2022/11/28 02:15:31;;;;;;;6.45;3.17;;;5.70;99.90;;;;;;6127962;19;19922;-67
2022/11/28 02:17:45;;;;;;;6.50;3.33;;;5.60;99.90;;;;;;6128641;19;20014;-67
2022/11/28 02:20:29;;;;;;;5.93;3.40;;;5.70;99.90;;;;;;6127518;19;19927;-66
2022/11/28 02:22:38;;;;;;;7.18;3.83;;;5.80;99.90;;;;;;6129126;19;19959;-66
2022/11/28 02:25:12;;;;;;;6.43;3.33;;;5.60;99.90;;;;;;6129052;19;20026;-67
2022/11/28 02:27:45;;;;;;;6.00;3.50;;;5.60;99.90;;;;;;6129049;19;19933;-66
2022/11/28 02:30:13;;;;;;;5.70;3.30;;;5.20;99.90;;;;;;6128642;19;19935;-67
2022/11/28 02:32:29;;;;;;;7.95;3.55;;;5.70;99.90;;;;;;6128227;19;19918;-67
2022/11/28 02:34:41;;;;;;;4.22;2.63;;;5.50;99.90;;;;;;6127494;19;20245;-67
2022/11/28 02:36:51;;;;;;;6.13;2.78;;;5.60;99.90;;;;;;6126263;19;19935;-67
2022/11/28 02:39:02;;;;;;;5.10;3.15;;;5.20;99.90;;;;;;6126116;19;19926;-67
2022/11/28 02:41:16;;;;;;;6.47;3.17;;;5.40;99.90;;;;;;6126535;19;19947;-67
2022/11/28 02:43:28;;;;;;;5.03;3.70;;;5.60;99.90;;;;;;6126758;19;20339;-67
2022/11/28 02:45:37;;;;;;;8.88;4.00;;;6.10;99.90;;;;;;6127429;19;19947;-67
2022/11/28 02:47:48;;;;;;;7.10;3.65;;;5.50;99.90;;;;;;6126169;19;19918;-67
2022/11/28 02:49:59;;;;;;;5.13;3.22;;;5.70;99.90;;;;;;6127552;19;20345;-67
2022/11/28 02:52:06;;;;;;;8.93;4.90;;;5.30;99.90;;;;;;6125923;19;19939;-66
2022/11/28 02:54:13;;;;;;;8.82;4.55;;;5.50;99.90;;;;;;6126323;19;19929;-68
2022/11/28 02:56:17;;;;;;;5.13;3.22;;;5.70;99.90;;;;;;6126948;19;19926;-67
2022/11/28 02:58:21;;;;;;;7.22;4.00;;;5.60;99.90;;;;;;6125802;19;19918;-68
2022/11/28 03:00:28;;;;;;;5.40;3.42;;;5.50;99.90;;;;;;6126325;19;19918;-67
2022/11/28 03:02:34;;;;;;;6.70;3.40;;;5.50;99.90;;;;;;6126794;19;20282;-67
2022/11/28 03:04:50;;;;;;;6.35;3.10;;;5.60;99.90;;;;;;6125800;19;20281;-68
2022/11/28 03:07:03;;;;;;;6.32;3.47;;;5.20;99.90;;;;;;6124738;19;19970;-67
2022/11/28 03:09:22;;;;;;;7.70;4.10;;;5.70;99.90;;;;;;6123309;19;20020;-68
2022/11/28 03:11:40;;;;;;;7.80;4.03;;;5.60;99.90;;;;;;6132712;19;19914;-67
2022/11/28 03:13:55;;;;;;;6.25;3.70;;;5.70;99.90;;;;;;6130985;19;19919;-67
2022/11/28 03:16:07;;;;;;;6.07;3.70;;;5.80;99.90;;;;;;6130955;19;19948;-67
2022/11/28 03:18:21;;;;;;;7.75;4.05;;;5.60;99.90;;;;;;6130873;19;19914;-67
2022/11/28 03:20:38;;;;;;;5.72;3.38;;;5.90;99.90;;;;;;6133497;19;19925;-67
2022/11/28 03:22:51;;;;;;;6.68;3.83;;;5.80;99.90;;;;;;6130647;19;19939;-67
2022/11/28 03:25:02;;;;;;;8.63;3.85;;;5.20;99.90;;;;;;6129337;19;19915;-67
2022/11/28 03:27:11;;;;;;;6.10;3.50;;;5.80;99.90;;;;;;6128159;19;19910;-67
2022/11/28 03:29:21;;;;;;;6.72;3.97;;;5.90;99.90;;;;;;6131505;19;20333;-68
2022/11/28 03:31:31;;;;;;;6.68;3.85;;;6.00;99.90;;;;;;6130502;19;20245;-67
2022/11/28 03:33:39;;;;;;;8.63;3.63;;;6.00;99.90;;;;;;6131287;19;20233;-69
2022/11/28 03:35:48;;;;;;;8.25;3.78;;;5.80;99.90;;;;;;6132307;19;20285;-67
2022/11/28 03:37:56;;;;;;;5.97;3.60;;;5.30;99.90;;;;;;6133699;19;19918;-67
2022/11/28 03:40:03;;;;;;;6.72;3.78;;;5.70;99.90;;;;;;6130703;19;19919;-67
2022/11/28 03:42:11;;;;;;;7.20;3.55;;;5.80;99.90;;;;;;6131686;19;19939;-66
2022/11/28 03:44:20;;;;;;;7.43;3.90;;;5.80;99.90;;;;;;6130294;19;19915;-67
2022/11/28 03:46:28;;;;;;;7.63;3.97;;;5.40;99.90;;;;;;6130228;19;19959;-67
2022/11/28 03:48:35;;;;;;;6.90;3.25;;;5.70;99.90;;;;;;6131982;19;19943;-67
2022/11/28 03:50:47;;;;;;;5.97;3.88;;;6.10;99.90;;;;;;6130353;19;19942;-67
2022/11/28 03:52:58;;;;;;;7.03;4.32;;;5.40;99.90;;;;;;6130103;19;20300;-67
2022/11/28 03:55:07;;;;;;;6.72;4.07;;;5.50;99.90;;;;;;6132772;19;19923;-67
2022/11/28 03:57:16;;;;;;;9.45;3.95;;;5.80;99.90;;;;;;6129534;19;19942;-67
2022/11/28 03:59:25;;;;;;;10.52;4.20;;;5.80;99.90;;;;;;6131943;19;19922;-67
2022/11/28 04:01:34;;;;;;;6.72;3.60;;;5.80;99.90;;;;;;6130276;19;19918;-67
2022/11/28 04:03:47;;;;;;;6.93;4.07;;;6.50;99.90;;;;;;6129603;19;20269;-67
2022/11/28 04:06:00;;;;;;;8.52;4.55;;;6.70;99.90;;;;;;6129170;19;19914;-67
2022/11/28 04:08:15;;;;;;;8.27;3.97;;;5.90;99.90;;;;;;6129670;19;19917;-67
2022/11/28 04:10:23;;;;;;;5.55;3.67;;;6.10;99.90;;;;;;6128794;19;19915;-67
2022/11/28 04:12:34;;;;;;;7.50;3.88;;;5.80;99.90;;;;;;6131666;19;19918;-68
2022/11/28 04:14:46;;;;;;;6.50;4.07;;;5.60;99.90;;;;;;6130362;19;19919;-67
2022/11/28 04:16:54;;;;;;;6.47;3.88;;;5.60;99.90;;;;;;6129629;19;19925;-67
2022/11/28 04:19:04;;;;;;;10.07;4.10;;;5.50;99.90;;;;;;6128520;19;19920;-69
2022/11/28 04:21:16;;;;;;;9.30;4.53;;;5.70;99.90;;;;;;6128415;19;20333;-68
2022/11/28 04:23:22;;;;;;;7.63;4.55;;;6.00;99.90;;;;;;6129330;19;19936;-67
2022/11/28 04:25:27;;;;;;;6.53;4.00;;;6.10;99.90;;;;;;6129236;19;20302;-67
2022/11/28 04:27:36;;;;;;;9.05;4.63;;;5.90;99.90;;;;;;6129509;19;19939;-68
2022/11/28 04:29:41;;;;;;;;;;;6.10;99.90;;;;;;6133145;19;19930;-67
2022/11/28 04:31:47;;;;;;;5.38;3.47;;;6.50;99.90;;;;;;6130665;19;20277;-67
2022/11/28 04:33:54;;;;;;;6.47;4.22;;;6.50;99.90;;;;;;6128927;19;19918;-67
2022/11/28 04:35:59;;;;;;;9.25;4.07;;;6.00;99.90;;;;;;6130809;19;19937;-67
2022/11/28 04:38:08;;;;;;;6.13;4.05;;;5.70;99.90;;;;;;6129365;19;19915;-67
2022/11/28 04:40:13;;;;;;;6.32;3.67;;;6.00;99.90;;;;;;6130463;19;20379;-67
2022/11/28 04:42:20;;;;;;;7.80;3.90;;;5.70;99.90;;;;;;6128746;19;19943;-67
2022/11/28 04:44:31;;;;;;;10.15;4.32;;;6.10;99.90;;;;;;6129966;19;19947;-67
2022/11/28 04:46:39;;;;;;;6.00;3.97;;;6.30;99.90;;;;;;6128686;19;19915;-66
2022/11/28 04:48:43;;;;;;;6.40;4.07;;;6.40;99.90;;;;;;6131560;19;19923;-66
2022/11/28 04:50:54;;;;;;;7.88;4.40;;;5.70;99.90;;;;;;6128978;19;19918;-67
2022/11/28 04:53:06;;;;;;;5.22;3.92;;;6.30;99.90;;;;;;6132033;19;20479;-67
2022/11/28 04:55:21;;;;;;;9.60;4.70;;;6.30;99.90;;;;;;6128601;19;20349;-67
2022/11/28 04:57:30;;;;;;;9.60;4.38;;;6.00;99.90;;;;;;6128298;19;19910;-67
2022/11/28 04:59:35;;;;;;;8.80;4.30;;;5.80;99.90;;;;;;6132700;19;19922;-66
2022/11/28 05:01:41;;;;;;;9.77;4.30;;;6.20;99.90;;;;;;6129630;19;20263;-67
2022/11/28 05:03:46;;;;;;;9.23;5.35;;;6.20;99.90;;;;;;6128507;19;19918;-67
2022/11/28 05:05:52;;;;;;;7.47;4.60;;;6.20;99.90;;;;;;6127668;19;19926;-67
2022/11/28 05:07:57;;;;;;;9.07;5.28;;;;;;;;;;6129377;19;19910;-67
2022/11/28 05:10:03;;;;;;;10.05;5.03;;;6.50;99.90;;;;;;6127498;19;19910;-67
2022/11/28 05:12:08;;;;;;;8.25;5.03;;;5.90;99.90;;;;;;6128189;19;19922;-68
2022/11/28 05:14:11;;;;;;;8.90;5.28;;;6.00;99.90;;;;;;6126057;19;19952;-66
2022/11/28 05:16:20;;;;;;;8.73;5.13;;;6.00;99.90;;;;;;6128407;19;20279;-67
2022/11/28 05:18:24;;;;;;;9.68;5.53;;;5.70;99.90;;;;;;6129090;19;19916;-67
2022/11/28 05:20:28;;;;;;;7.32;5.43;;;5.90;99.90;;;;;;6128014;19;20002;-67
2022/11/28 05:22:32;;;;;;;9.05;5.20;;;;;;;;;;6127926;19;19911;-67
2022/11/28 05:24:36;;;;;;;9.68;5.82;;;;;;;;;;6131012;19;19923;-67
2022/11/28 05:26:42;;;;;;;8.10;4.70;;;5.70;99.90;;;;;;6127484;19;20344;-67
2022/11/28 05:28:47;;;;;;;9.40;5.40;;;6.10;99.90;;;;;;6127987;19;19921;-67
2022/11/28 05:30:58;;;;;;;10.35;5.25;;;6.30;99.90;;;;;;6125373;19;19922;-67
2022/11/28 05:33:02;;;;;;;10.85;5.47;;;6.10;99.90;;;;;;6127778;19;19932;-67
2022/11/28 05:35:07;;;;;;;9.50;5.28;;;5.80;99.90;;;;;;6129860;19;19926;-67
2022/11/28 05:37:11;;;;;;;10.35;6.32;;;5.90;99.90;;;;;;6127441;19;19922;-67
2022/11/28 05:39:15;;;;;;;8.05;5.60;;;6.20;99.90;;;;;;6127603;19;19922;-67
2022/11/28 05:41:23;;;;;;;8.05;4.65;;;6.40;99.90;;;;;;6127370;19;19915;-67
2022/11/28 05:43:30;;;;;;;8.48;5.75;;;6.30;99.90;;;;;;6125281;19;20018;-67
2022/11/28 05:45:34;;;;;;;10.10;6.03;;;6.40;99.90;;;;;;6130515;19;19922;-66
2022/11/28 05:47:38;;;;;;;9.90;5.50;;;6.50;99.90;;;;;;6127400;19;20263;-67
2022/11/28 05:49:42;;;;;;;8.38;5.70;;;;;;;;;;6128010;19;19922;-66
2022/11/28 05:51:46;;;;;;;11.07;6.10;;;6.00;99.90;;;;;;6129547;19;19922;-66
2022/11/28 05:53:50;;;;;;;11.50;6.22;;;6.70;99.90;;;;;;6126332;19;19939;-66
2022/11/28 05:55:54;;;;;;;10.13;5.95;;;6.20;99.90;;;;;;6129593;19;20290;-66
2022/11/28 05:57:58;;;;;;;9.90;6.53;;;5.90;99.90;;;;;;6127587;19;19915;-67
2022/11/28 06:00:06;;;;;;;12.00;6.82;;;6.30;99.90;;;;;;6128212;19;19918;-67
2022/11/28 06:02:10;;;;;;;10.77;7.00;;;6.20;99.90;;;;;;6127677;19;19918;-67
2022/11/28 06:04:14;;;;;;;12.93;6.35;;;6.50;99.90;;;;;;6127492;19;19918;-67
2022/11/28 06:06:20;;;;;;;12.02;6.75;;;6.10;99.90;;;;;;6129990;19;19926;-67
2022/11/28 06:08:24;;;;;;;12.57;6.63;;;6.40;99.90;;;;;;6127043;19;20007;-67
2022/11/28 06:10:28;;;;;;;14.25;7.93;;;6.70;99.90;;;;;;6129191;19;20699;-66
2022/11/28 06:12:31;;;;;;;11.02;6.88;;;6.20;99.90;;;;;;6130500;19;19917;-67
2022/11/28 06:14:35;;;;;;;9.57;6.30;;;6.00;99.90;;;;;;6125859;19;19940;-66
2022/11/28 06:16:44;;;;;;;10.27;7.00;;;6.20;99.90;;;;;;6127484;19;19923;-66
2022/11/28 06:18:48;;;;;;;12.63;6.95;;;6.30;99.90;;;;;;6129859;19;19914;-66
2022/11/28 06:20:52;;;;;;;12.43;7.32;;;;;;;;;;6126440;19;19925;-66
2022/11/28 06:22:56;;;;;;;15.23;8.13;;;6.40;99.90;;;;;;6123127;19;20014;-66
2022/11/28 06:25:00;;;;;;;12.07;7.47;;;;;;;;;;6126197;19;19939;-66
2022/11/28 06:27:04;;;;;;;11.93;7.30;;;6.00;99.90;;;;;;6127343;19;19918;-66
2022/11/28 06:29:08;;;;;;;11.90;7.45;;;6.40;99.90;;;;;;6126274;19;19935;-66
2022/11/28 06:31:13;;;;;;;13.95;7.72;;;6.40;99.90;;;;;;6124875;19;19917;-66
2022/11/28 06:33:20;;;;;;;11.25;6.80;;;6.20;99.90;;;;;;6126955;19;19959;-66
2022/11/28 06:35:24;;;;;;;12.20;7.68;;;6.50;99.90;;;;;;6126216;19;19918;-66
2022/11/28 06:37:28;;;;;;;13.80;7.43;;;6.10;99.90;;;;;;6128374;19;19922;-66
2022/11/28 06:39:32;;;;;;;12.98;7.43;;;;;;;;;;6126883;19;20329;-67
2022/11/28 06:41:36;;;;;;;14.00;8.05;;;6.20;99.90;;;;;;6128619;19;19918;-70
2022/11/28 06:43:40;;;;;;;12.05;7.05;;;6.20;99.90;;;;;;6123293;19;19971;-67
2022/11/28 06:45:45;;;;;;;12.77;8.05;;;;;;;;;;6129724;19;19918;-67
2022/11/28 06:47:48;;;;;;;11.35;7.63;;;6.20;99.90;;;;;;6125209;19;19923;-66
2022/11/28 06:49:55;;;;;;;14.75;8.10;;;6.10;99.90;;;;;;6127270;19;19919;-66
2022/11/28 06:51:59;;;;;;;12.60;7.88;;;6.50;99.90;;;;;;6122043;19;20492;-66
2022/11/28 06:54:03;;;;;;;13.45;8.45;;;6.20;99.90;;;;;;6126082;19;19933;-71
2022/11/28 06:56:08;;;;;;;13.88;7.90;;;6.10;99.90;;;;;;6128937;19;20367;-77
2022/11/28 06:58:12;;;;;;;13.02;7.55;;;6.30;99.90;;;;;;6125469;19;20412;-72
2022/11/28 07:00:19;;;;;;;14.35;7.95;;;6.40;99.90;;;;;;6125475;19;20345;-74
2022/11/28 07:02:23;;;;;;;13.75;8.60;;;6.30;99.90;;;;;;6125801;19;19919;-73
2022/11/28 07:04:28;;;;;;;11.45;7.38;;;6.30;99.90;;;;;;6127352;19;20398;-73
2022/11/28 07:06:36;;;;;;;13.57;7.70;;;6.70;99.90;;;;;;6125221;19;19918;-71
2022/11/28 07:08:40;;;;;;;10.30;7.55;;;6.10;99.90;;;;;;6127028;19;19927;-68
2022/11/28 07:10:44;;;;;;;12.93;7.28;;;6.20;99.90;;;;;;6127034;19;19918;-68
2022/11/28 07:12:48;;;;;;;12.13;7.63;;;6.60;99.90;;;;;;6125128;19;19923;-68
2022/11/28 07:14:52;;;;;;;11.85;7.63;;;6.30;99.90;;;;;;6128096;19;19933;-70
2022/11/28 07:16:56;;;;;;;14.23;7.53;;;6.40;99.90;;;;;;6125510;19;19919;-67
2022/11/28 07:19:00;;;;;;;12.45;7.50;;;6.30;99.90;;;;;;6126220;19;20373;-67
2022/11/28 07:21:04;;;;;;;11.65;7.70;;;6.70;99.90;;;;;;6125367;19;19922;-66
2022/11/28 07:23:11;;;;;;;11.80;6.57;;;6.70;99.90;;;;;;6123964;19;19922;-67
2022/11/28 07:25:15;;;;;;;10.85;6.53;;;6.80;99.90;;;;;;6126431;19;19918;-66
2022/11/28 07:27:19;;;;;;;10.00;7.32;;;6.10;99.90;;;;;;6123735;19;19923;-66
2022/11/28 07:29:23;;;;;;;11.95;7.80;;;6.80;99.90;;;;;;6125292;19;20355;-66
2022/11/28 07:31:30;;;;;;;9.57;6.60;;;6.20;99.90;;;;;;6124646;19;20271;-66
2022/11/28 07:33:36;;;;;;;14.20;7.75;;;6.50;99.90;;;;;;6121952;19;20287;-69
2022/11/28 07:35:40;;;;;;;10.57;6.75;;;6.70;99.90;;;;;;6123362;19;19956;-66
2022/11/28 07:37:46;;;;;;;12.20;7.20;;;6.30;99.90;;;;;;6124808;19;19934;-67
2022/11/28 07:39:53;;;;;;;11.38;7.13;;;7.00;99.90;;;;;;6116609;19;20029;-66
2022/11/28 07:41:57;;;;;;;9.93;7.03;;;6.90;99.90;;;;;;6124276;19;19922;-66
2022/11/28 07:44:02;;;;;;;9.27;6.63;;;6.20;99.90;;;;;;6124056;19;19978;-67
2022/11/28 07:46:08;;;;;;;10.90;6.85;;;6.50;99.90;;;;;;6123193;19;20007;-67
2022/11/28 07:48:12;;;;;;;11.10;7.00;;;;;;;;;;6123199;19;19919;-66
2022/11/28 07:50:16;;;;;;;14.05;7.70;;;6.70;99.90;;;;;;6124314;19;19923;-67
2022/11/28 07:52:20;;;;;;;11.88;7.82;;;6.20;99.90;;;;;;6124277;19;19926;-67
2022/11/28 07:54:24;;;;;;;9.45;6.55;;;;;;;;;;6127624;19;19927;-67
2022/11/28 07:56:32;;;;;;;10.43;6.82;;;6.40;99.90;;;;;;6129602;19;19923;-68
2022/11/28 07:58:37;;;;;;;11.75;7.97;;;6.30;99.90;;;;;;6129733;19;20029;-67
2022/11/28 08:00:41;;;;;;;11.57;7.32;;;6.90;99.90;;;;;;6129686;19;19957;-67
2022/11/28 08:02:45;;;;;;;10.18;7.68;;;6.40;99.90;;;;;;6130874;19;20404;-67
2022/11/28 08:04:50;;;;;;;10.30;7.10;;;6.50;99.90;;;;;;6130859;19;19919;-67
2022/11/28 08:06:54;;;;;;;11.65;7.65;;;6.40;99.90;;;;;;6128037;19;20511;-67
2022/11/28 08:08:59;;;;;;;12.25;6.93;;;6.40;99.90;;;;;;6129765;19;19939;-67
2022/11/28 08:11:04;;;;;;;10.40;7.00;;;6.20;99.90;;;;;;6130776;19;19922;-67
2022/11/28 08:13:11;;;;;;;17.45;7.55;;;6.60;99.90;;;;;;6128148;19;19921;-67
2022/11/28 08:15:14;;;;;;;12.68;7.82;;;6.50;99.90;;;;;;6128417;19;19978;-67
2022/11/28 08:17:18;;;;;;;12.18;7.50;;;6.50;99.90;;;;;;6123640;19;20015;-67
2022/11/28 08:19:22;;;;;;;13.35;8.18;;;;;;;;;;6130471;19;19948;-67
2022/11/28 08:21:28;;;;;;;11.70;7.45;;;6.50;99.90;;;;;;6123732;19;20298;-68
2022/11/28 08:23:32;;;;;;;13.88;8.68;;;6.40;99.90;;;;;;6128119;19;19946;-67
2022/11/28 08:25:36;;;;;;;11.93;8.00;;;;;;;;;;6129045;19;19950;-67
2022/11/28 08:27:40;;;;;;;10.20;7.13;;;7.00;99.90;;;;;;6128425;19;19943;-67
2022/11/28 08:29:46;;;;;;;10.80;7.63;;;6.70;99.90;;;;;;6124730;19;20035;-67
2022/11/28 08:31:50;;;;;;;10.85;7.38;;;6.30;99.90;;;;;;6127776;19;19919;-67
2022/11/28 08:33:56;;;;;;;13.23;8.05;;;6.60;99.90;;;;;;6125606;19;19922;-67
2022/11/28 08:36:00;;;;;;;12.20;7.93;;;;;;;;;;6128922;19;19926;-67
2022/11/28 08:38:04;;;;;;;12.88;7.80;;;6.50;99.90;;;;;;6124279;19;20029;-67
2022/11/28 08:40:10;;;;;;;11.73;7.22;;;6.70;99.90;;;;;;6127623;19;20367;-67
2022/11/28 08:42:14;;;;;;;12.25;7.38;;;6.10;99.90;;;;;;6130926;19;19930;-67
2022/11/28 08:44:17;;;;;;;11.38;7.22;;;6.50;99.90;;;;;;6127832;19;19982;-68
2022/11/28 08:46:24;;;;;;;12.13;8.13;;;6.60;99.90;;;;;;6130715;19;19935;-68
2022/11/28 08:48:29;;;;;;;10.93;7.88;;;6.70;99.90;;;;;;6132308;19;19914;-67
2022/11/28 08:50:33;;;;;;;11.75;7.72;;;6.30;99.90;;;;;;6128113;19;19922;-67
2022/11/28 08:52:37;;;;;;;14.77;8.15;;;6.80;99.90;;;;;;6130129;19;20345;-67
2022/11/28 08:54:41;;;;;;;13.18;7.40;;;6.40;99.90;;;;;;6127926;19;20043;-67
2022/11/28 08:56:45;;;;;;;12.00;7.85;;;6.40;99.90;;;;;;6129682;19;19918;-67
2022/11/28 08:58:49;;;;;;;10.55;7.15;;;7.00;99.90;;;;;;6132041;19;20343;-67
2022/11/28 09:00:53;;;;;;;12.23;8.02;;;6.50;99.90;;;;;;6128588;19;19915;-67
2022/11/28 09:02:59;;;;;;;13.00;7.88;;;6.50;99.90;;;;;;6131953;19;19966;-67
2022/11/28 09:05:04;;;;;;;12.10;8.00;;;6.90;99.90;;;;;;6129193;19;19915;-67
2022/11/28 09:07:08;;;;;;;13.38;8.45;;;6.60;99.90;;;;;;6126438;19;19947;-67
2022/11/28 09:09:12;;;;;;;14.48;8.68;;;;;;;;;;6128645;19;19919;-67
2022/11/28 09:11:17;;;;;;;13.95;8.55;;;6.70;99.90;;;;;;6128123;19;19918;-68
2022/11/28 09:13:21;;;;;;;15.10;8.10;;;6.70;99.90;;;;;;6127695;19;19918;-68
2022/11/28 09:15:25;;;;;;;13.90;7.97;;;6.80;99.90;;;;;;6129994;19;19933;-67
2022/11/28 09:17:29;;;;;;;11.35;7.80;;;6.90;99.90;;;;;;6128131;19;19915;-67
2022/11/28 09:19:36;;;;;;;11.65;8.05;;;6.80;99.90;;;;;;6127024;19;19923;-68
2022/11/28 09:21:40;;;;;;;11.30;7.72;;;6.90;99.90;;;;;;6131289;19;19927;-68
2022/11/28 09:23:46;;;;;;;14.23;8.45;;;6.80;99.90;;;;;;6128012;19;19918;-68
2022/11/28 09:25:50;;;;;;;13.15;7.88;;;;;;;;;;6128070;19;19975;-68
2022/11/28 09:27:54;;;;;;;12.18;8.10;;;6.60;99.90;;;;;;6127364;19;19922;-67
2022/11/28 09:29:58;;;;;;;13.57;8.90;;;6.70;99.90;;;;;;6127185;19;19922;-68
2022/11/28 09:32:01;;;;;;;13.00;8.48;;;7.20;99.90;;;;;;6124694;19;19922;-68
2022/11/28 09:34:05;;;;;;;13.32;8.43;;;6.80;99.90;;;;;;6128305;19;19927;-67
2022/11/28 09:36:14;;;;;;;12.50;8.02;;;6.90;99.90;;;;;;6127524;19;19922;-67
2022/11/28 09:38:18;;;;;;;14.13;7.82;;;7.00;99.90;;;;;;6125335;19;19922;-67
2022/11/28 09:40:27;;;;;;;12.18;8.02;;;6.80;99.90;;;;;;6126427;19;19946;-67
2022/11/28 09:42:36;;;;;;;12.30;8.23;;;7.10;99.90;;;;;;6129364;19;19922;-67
2022/11/28 09:44:46;;;;;;;12.88;8.93;;;7.00;99.90;;;;;;6126088;19;19923;-68
2022/11/28 09:46:51;;;;;;;13.35;9.07;;;6.80;99.90;;;;;;6127579;19;19923;-67
2022/11/28 09:48:59;;;;;;;13.93;8.77;;;6.70;99.90;;;;;;6127839;19;19922;-67
2022/11/28 09:51:08;;;;;;;14.65;8.65;;;6.80;99.90;;;;;;6127090;19;19926;-67
2022/11/28 09:53:25;;;;;;;12.98;8.38;;;6.80;99.90;;;;;;6126686;19;19910;-67
2022/11/28 09:55:36;;;;;;;14.15;8.88;;;7.00;99.90;;;;;;6127716;19;19921;-68
2022/11/28 09:57:45;;;;;;;13.10;8.00;;;7.10;99.90;;;;;;6127130;19;19939;-67
2022/11/28 09:59:49;;;;;;;11.57;7.47;;;7.00;99.90;;;;;;6129338;19;19925;-67
2022/11/28 10:02:02;;;;;;;13.20;8.27;;;7.10;99.90;;;;;;6125957;19;20014;-66
2022/11/28 10:04:12;;;;;;;11.23;8.48;;;6.80;99.90;;;;;;6128220;19;20364;-67
2022/11/28 10:06:23;;;;;;;10.95;7.20;;;6.40;99.90;;;;;;6130684;19;19919;-67
2022/11/28 10:08:38;;;;;;;11.48;7.55;;;7.40;99.90;;;;;;6128109;19;19930;-67
2022/11/28 10:10:53;;;;;;;13.02;7.93;;;7.30;99.90;;;;;;6126481;19;19950;-66
2022/11/28 10:13:03;;;;;;;11.13;8.05;;;7.10;99.90;;;;;;6124892;19;19939;-68
2022/11/28 10:15:37;;;;;;;11.45;7.78;;;7.00;99.90;;;;;;6126530;19;19915;-67
2022/11/28 10:17:50;;;;;;;11.68;6.88;;;6.50;99.90;;;;;;6126397;19;20242;-67
2022/11/28 10:19:58;;;;;;;10.15;6.63;;;7.00;99.90;;;;;;6127939;19;20335;-66
2022/11/28 10:22:06;;;;;;;10.95;7.28;;;7.00;99.90;;;;;;6126020;19;19918;-65
2022/11/28 10:24:17;;;;;;;10.10;6.68;;;6.80;99.90;;;;;;6127850;19;19923;-66
2022/11/28 10:26:25;;;;;;;12.75;7.60;;;6.70;99.90;;;;;;6126567;19;19922;-66
2022/11/28 10:28:34;;;;;;;14.02;7.18;;;7.30;99.90;;;;;;6126169;19;20390;-66
2022/11/28 10:30:42;;;;;;;10.68;7.35;;;7.30;99.90;;;;;;6129121;19;19922;-66
2022/11/28 10:32:53;;;;;;;11.23;7.25;;;6.80;99.90;;;;;;6125945;19;20361;-67
2022/11/28 10:35:02;;;;;;;9.48;6.05;;;7.10;99.90;;;;;;6126086;19;20379;-66
2022/11/28 10:37:14;;;;;;;8.07;5.55;;;7.20;99.90;;;;;;6126175;19;19922;-66
2022/11/28 10:39:20;;;;;;;10.23;6.88;;;7.50;99.90;;;;;;6125063;19;19922;-67
2022/11/28 10:41:33;;;;;;;10.25;6.70;;;8.00;99.90;;;;;;6121607;19;20010;-67
2022/11/28 10:43:45;;;;;;;9.60;6.60;;;6.80;99.90;;;;;;6126940;19;19919;-67
2022/11/28 10:45:55;;;;;;;7.45;5.55;;;7.30;99.90;;;;;;6126273;19;20270;-66
2022/11/28 10:48:12;;;;;;;8.73;6.13;;;7.00;99.90;;;;;;6125699;19;19922;-66
2022/11/28 10:50:23;;;;;;;8.38;6.03;;;6.60;99.90;;;;;;6125377;19;20348;-66
2022/11/28 10:52:38;;;;;;;7.78;5.90;;;6.90;99.90;;;;;;6124601;19;19962;-66
2022/11/28 10:55:03;;;;;;;9.70;5.95;;;7.10;99.90;;;;;;6125562;19;19919;-67
2022/11/28 10:57:13;;;;;;;8.35;5.57;;;7.30;99.90;;;;;;6125364;19;19926;-67
2022/11/28 10:59:26;;;;;;;9.10;5.28;;;6.80;99.90;;;;;;6126835;19;19918;-67
2022/11/28 11:01:33;;;;;;;8.65;5.90;;;7.10;99.90;;;;;;6127091;19;19927;-67
2022/11/28 11:03:38;;;;;;;9.27;5.82;;;6.90;99.90;;;;;;6125605;19;19918;-67
2022/11/28 11:05:42;;;;;;;10.00;5.65;;;;;;;;;;6125277;19;20292;-66
2022/11/28 11:07:51;;;;;;;8.43;5.60;;;7.00;99.90;;;;;;6124956;19;19922;-67
2022/11/28 11:09:58;;;;;;;6.70;5.13;;;6.80;99.90;;;;;;6127615;19;19955;-66
2022/11/28 11:12:03;;;;;;;8.07;5.85;;;7.30;99.90;;;;;;6122550;19;19925;-66
2022/11/28 11:14:09;;;;;;;7.90;5.30;;;7.10;99.90;;;;;;6124095;19;19919;-66